sensor_id;sensor_type;location;lat;lon;timestamp;pressure;altitude;pressure_sealevel;temperature;humidity
70445;BME280;57902;49.638;11.070;2023-07-16T00:01:56;97913.56;;;20.21;100.00
70445;BME280;57902;49.638;11.070;2023-07-16T00:04:23;97925.69;;;20.22;100.00
70445;BME280;57902;49.638;11.070;2023-07-16T00:06:49;97942.69;;;20.17;100.00
70445;BME280;57902;49.638;11.070;2023-07-16T00:09:16;97956.88;;;20.25;100.00
70445;BME280;57902;49.638;11.070;2023-07-16T00:11:45;97974.38;;;20.25;100.00
70445;BME280;57902;49.638;11.070;2023-07-16T00:14:12;97986.25;;;20.18;100.00
70445;BME280;57902;49.638;11.070;2023-07-16T00:16:38;97985.28;;;20.19;100.00
70445;BME280;57902;49.638;11.070;2023-07-16T00:19:05;97982.44;;;20.22;100.00
70445;BME280;57902;49.638;11.070;2023-07-16T00:21:32;97974.03;;;20.30;100.00
70445;BME280;57902;49.638;11.070;2023-07-16T00:23:58;97970.13;;;20.35;100.00
70445;BME280;57902;49.638;11.070;2023-07-16T00:26:25;97956.31;;;20.44;100.00
70445;BME280;57902;49.638;11.070;2023-07-16T00:28:52;97939.56;;;20.47;100.00
70445;BME280;57902;49.638;11.070;2023-07-16T00:31:18;97933.47;;;20.46;100.00
70445;BME280;57902;49.638;11.070;2023-07-16T00:33:45;97937.28;;;20.42;100.00
70445;BME280;57902;49.638;11.070;2023-07-16T00:36:11;97941.09;;;20.38;100.00
70445;BME280;57902;49.638;11.070;2023-07-16T00:38:38;97946.22;;;20.40;100.00
70445;BME280;57902;49.638;11.070;2023-07-16T00:41:06;97960.97;;;20.41;100.00
70445;BME280;57902;49.638;11.070;2023-07-16T00:43:33;97975.47;;;20.34;100.00
70445;BME280;57902;49.638;11.070;2023-07-16T00:46:00;97978.44;;;20.29;100.00
70445;BME280;57902;49.638;11.070;2023-07-16T00:48:28;97994.63;;;20.34;100.00
70445;BME280;57902;49.638;11.070;2023-07-16T00:50:56;98025.69;;;20.39;100.00
70445;BME280;57902;49.638;11.070;2023-07-16T00:53:23;98033.06;;;20.45;100.00
70445;BME280;57902;49.638;11.070;2023-07-16T00:55:50;98044.19;;;20.49;100.00
70445;BME280;57902;49.638;11.070;2023-07-16T00:58:16;98046.56;;;20.52;100.00
70445;BME280;57902;49.638;11.070;2023-07-16T01:00:43;98062.44;;;20.61;100.00
70445;BME280;57902;49.638;11.070;2023-07-16T01:03:12;98070.19;;;20.63;100.00
70445;BME280;57902;49.638;11.070;2023-07-16T01:06:10;98078.34;;;20.58;100.00
70445;BME280;57902;49.638;11.070;2023-07-16T01:08:44;98078.75;;;20.65;100.00
70445;BME280;57902;49.638;11.070;2023-07-16T01:11:12;98077.53;;;20.58;100.00
70445;BME280;57902;49.638;11.070;2023-07-16T01:13:39;98075.47;;;20.50;100.00
70445;BME280;57902;49.638;11.070;2023-07-16T01:16:06;98081.94;;;20.57;100.00
70445;BME280;57902;49.638;11.070;2023-07-16T01:18:33;98081.72;;;20.60;100.00
70445;BME280;57902;49.638;11.070;2023-07-16T01:20:59;98081.09;;;20.57;100.00
70445;BME280;57902;49.638;11.070;2023-07-16T01:23:35;98100.63;;;20.64;100.00
70445;BME280;57902;49.638;11.070;2023-07-16T01:29:35;98117.25;;;20.52;100.00
70445;BME280;57902;49.638;11.070;2023-07-16T01:32:04;98111.03;;;20.41;100.00
70445;BME280;57902;49.638;11.070;2023-07-16T01:34:33;98109.56;;;20.37;100.00
70445;BME280;57902;49.638;11.070;2023-07-16T01:37:01;98104.28;;;20.26;100.00
70445;BME280;57902;49.638;11.070;2023-07-16T01:39:29;98107.22;;;20.21;100.00
70445;BME280;57902;49.638;11.070;2023-07-16T01:41:56;98082.31;;;20.16;100.00
70445;BME280;57902;49.638;11.070;2023-07-16T01:44:23;98063.97;;;20.04;100.00
70445;BME280;57902;49.638;11.070;2023-07-16T01:47:02;98072.75;;;20.03;100.00
70445;BME280;57902;49.638;11.070;2023-07-16T01:49:32;98058.00;;;20.02;100.00
70445;BME280;57902;49.638;11.070;2023-07-16T01:52:00;98026.34;;;19.94;100.00
70445;BME280;57902;49.638;11.070;2023-07-16T01:54:27;98042.38;;;19.89;100.00
70445;BME280;57902;49.638;11.070;2023-07-16T01:56:54;98039.47;;;19.81;100.00
70445;BME280;57902;49.638;11.070;2023-07-16T01:59:20;98045.09;;;19.75;100.00
70445;BME280;57902;49.638;11.070;2023-07-16T02:01:47;98062.56;;;19.74;100.00
70445;BME280;57902;49.638;11.070;2023-07-16T02:04:13;98064.78;;;19.68;100.00
70445;BME280;57902;49.638;11.070;2023-07-16T02:06:40;98052.03;;;19.63;100.00
70445;BME280;57902;49.638;11.070;2023-07-16T02:09:06;98048.78;;;19.59;100.00
70445;BME280;57902;49.638;11.070;2023-07-16T02:11:33;98049.94;;;19.55;100.00
70445;BME280;57902;49.638;11.070;2023-07-16T02:13:59;98034.34;;;19.54;100.00
70445;BME280;57902;49.638;11.070;2023-07-16T02:16:26;98032.63;;;19.41;100.00
70445;BME280;57902;49.638;11.070;2023-07-16T02:18:52;98027.16;;;19.45;100.00
70445;BME280;57902;49.638;11.070;2023-07-16T02:21:19;98042.25;;;19.28;100.00
70445;BME280;57902;49.638;11.070;2023-07-16T02:23:45;98051.34;;;19.35;100.00
70445;BME280;57902;49.638;11.070;2023-07-16T02:26:12;98042.47;;;19.25;100.00
70445;BME280;57902;49.638;11.070;2023-07-16T02:28:39;98030.66;;;19.32;100.00
70445;BME280;57902;49.638;11.070;2023-07-16T02:31:06;98025.59;;;19.42;100.00
70445;BME280;57902;49.638;11.070;2023-07-16T02:33:32;98040.03;;;19.48;100.00
70445;BME280;57902;49.638;11.070;2023-07-16T02:35:59;98032.09;;;19.36;100.00
70445;BME280;57902;49.638;11.070;2023-07-16T02:38:25;98019.78;;;19.13;100.00
70445;BME280;57902;49.638;11.070;2023-07-16T02:40:52;98033.81;;;19.12;100.00
70445;BME280;57902;49.638;11.070;2023-07-16T02:43:19;98036.31;;;19.13;100.00
70445;BME280;57902;49.638;11.070;2023-07-16T02:45:46;98062.44;;;19.00;100.00
70445;BME280;57902;49.638;11.070;2023-07-16T02:48:12;98082.69;;;18.97;100.00
70445;BME280;57902;49.638;11.070;2023-07-16T02:50:39;98082.28;;;18.90;100.00
70445;BME280;57902;49.638;11.070;2023-07-16T02:53:06;98101.28;;;18.92;100.00
70445;BME280;57902;49.638;11.070;2023-07-16T02:55:36;98105.69;;;18.92;100.00
70445;BME280;57902;49.638;11.070;2023-07-16T02:58:03;98106.31;;;18.95;100.00
70445;BME280;57902;49.638;11.070;2023-07-16T03:00:33;98111.00;;;18.90;100.00
70445;BME280;57902;49.638;11.070;2023-07-16T03:03:00;98111.72;;;18.92;100.00
70445;BME280;57902;49.638;11.070;2023-07-16T03:05:28;98111.94;;;18.89;100.00
70445;BME280;57902;49.638;11.070;2023-07-16T03:07:54;98117.16;;;18.89;100.00
70445;BME280;57902;49.638;11.070;2023-07-16T03:10:22;98110.09;;;18.91;100.00
70445;BME280;57902;49.638;11.070;2023-07-16T03:12:53;98091.78;;;18.91;100.00
70445;BME280;57902;49.638;11.070;2023-07-16T03:15:20;98111.53;;;18.95;100.00
70445;BME280;57902;49.638;11.070;2023-07-16T03:17:47;98115.47;;;18.88;100.00
70445;BME280;57902;49.638;11.070;2023-07-16T03:20:16;98128.38;;;18.91;100.00
70445;BME280;57902;49.638;11.070;2023-07-16T03:22:45;98135.03;;;18.95;100.00
70445;BME280;57902;49.638;11.070;2023-07-16T03:25:21;98144.75;;;18.93;100.00
70445;BME280;57902;49.638;11.070;2023-07-16T03:27:52;98146.22;;;18.97;100.00
70445;BME280;57902;49.638;11.070;2023-07-16T03:30:19;98160.03;;;18.99;100.00
70445;BME280;57902;49.638;11.070;2023-07-16T03:32:46;98173.53;;;19.06;100.00
70445;BME280;57902;49.638;11.070;2023-07-16T03:35:19;98175.72;;;19.12;100.00
70445;BME280;57902;49.638;11.070;2023-07-16T03:37:54;98165.06;;;19.15;100.00
70445;BME280;57902;49.638;11.070;2023-07-16T03:40:38;98155.84;;;19.10;100.00
70445;BME280;57902;49.638;11.070;2023-07-16T03:43:08;98152.09;;;19.14;100.00
70445;BME280;57902;49.638;11.070;2023-07-16T03:45:35;98143.97;;;19.18;100.00
70445;BME280;57902;49.638;11.070;2023-07-16T03:48:02;98139.75;;;19.16;100.00
70445;BME280;57902;49.638;11.070;2023-07-16T03:50:29;98141.88;;;19.23;100.00
70445;BME280;57902;49.638;11.070;2023-07-16T03:52:56;98156.50;;;19.26;100.00
70445;BME280;57902;49.638;11.070;2023-07-16T03:55:27;98163.41;;;19.27;100.00
70445;BME280;57902;49.638;11.070;2023-07-16T03:58:04;98161.34;;;19.32;100.00
70445;BME280;57902;49.638;11.070;2023-07-16T04:00:36;98154.00;;;19.37;100.00
70445;BME280;57902;49.638;11.070;2023-07-16T04:03:07;98152.88;;;19.41;100.00
70445;BME280;57902;49.638;11.070;2023-07-16T04:05:41;98160.38;;;19.46;100.00
70445;BME280;57902;49.638;11.070;2023-07-16T04:08:10;98160.81;;;19.40;100.00
70445;BME280;57902;49.638;11.070;2023-07-16T04:10:51;98155.88;;;19.48;100.00
70445;BME280;57902;49.638;11.070;2023-07-16T04:13:22;98153.59;;;19.44;100.00
70445;BME280;57902;49.638;11.070;2023-07-16T04:15:51;98176.59;;;19.38;100.00
70445;BME280;57902;49.638;11.070;2023-07-16T04:18:29;98180.47;;;19.46;100.00
70445;BME280;57902;49.638;11.070;2023-07-16T04:21:04;98187.91;;;19.52;100.00
70445;BME280;57902;49.638;11.070;2023-07-16T04:23:32;98212.59;;;19.61;100.00
70445;BME280;57902;49.638;11.070;2023-07-16T04:25:59;98218.69;;;19.87;100.00
70445;BME280;57902;49.638;11.070;2023-07-16T04:28:25;98226.81;;;20.21;100.00
70445;BME280;57902;49.638;11.070;2023-07-16T04:30:52;98232.09;;;20.82;100.00
70445;BME280;57902;49.638;11.070;2023-07-16T04:33:18;98246.81;;;21.56;96.20
70445;BME280;57902;49.638;11.070;2023-07-16T04:35:45;98251.53;;;22.20;90.05
70445;BME280;57902;49.638;11.070;2023-07-16T04:38:12;98253.91;;;22.68;85.15
70445;BME280;57902;49.638;11.070;2023-07-16T04:40:38;98266.03;;;22.92;82.75
70445;BME280;57902;49.638;11.070;2023-07-16T04:43:05;98264.25;;;23.46;84.01
70445;BME280;57902;49.638;11.070;2023-07-16T04:45:32;98271.72;;;23.83;78.00
70445;BME280;57902;49.638;11.070;2023-07-16T04:47:58;98282.78;;;23.98;75.43
70445;BME280;57902;49.638;11.070;2023-07-16T04:50:25;98284.63;;;24.07;74.12
70445;BME280;57902;49.638;11.070;2023-07-16T04:52:52;98272.97;;;24.41;71.45
70445;BME280;57902;49.638;11.070;2023-07-16T04:55:18;98271.09;;;23.91;72.63
70445;BME280;57902;49.638;11.070;2023-07-16T04:57:45;98277.94;;;23.40;74.47
70445;BME280;57902;49.638;11.070;2023-07-16T05:00:12;98282.81;;;22.68;81.01
70445;BME280;57902;49.638;11.070;2023-07-16T05:02:38;98267.19;;;22.33;80.78
70445;BME280;57902;49.638;11.070;2023-07-16T05:05:05;98262.75;;;22.11;80.51
70445;BME280;57902;49.638;11.070;2023-07-16T05:07:32;98265.03;;;22.38;78.55
70445;BME280;57902;49.638;11.070;2023-07-16T05:09:58;98282.56;;;22.71;77.23
70445;BME280;57902;49.638;11.070;2023-07-16T05:12:25;98287.56;;;23.72;75.14
70445;BME280;57902;49.638;11.070;2023-07-16T05:14:51;98292.97;;;24.13;68.23
70445;BME280;57902;49.638;11.070;2023-07-16T05:17:18;98296.75;;;23.99;67.59
70445;BME280;57902;49.638;11.070;2023-07-16T05:19:45;98305.75;;;23.21;71.92
70445;BME280;57902;49.638;11.070;2023-07-16T05:22:11;98314.06;;;22.15;77.44
70445;BME280;57902;49.638;11.070;2023-07-16T05:24:38;98311.00;;;21.63;79.13
70445;BME280;57902;49.638;11.070;2023-07-16T05:27:05;98316.38;;;21.48;80.63
70445;BME280;57902;49.638;11.070;2023-07-16T05:29:31;98325.44;;;21.20;84.41
70445;BME280;57902;49.638;11.070;2023-07-16T05:31:58;98323.47;;;20.87;83.26
70445;BME280;57902;49.638;11.070;2023-07-16T05:34:27;98327.13;;;20.84;81.87
70445;BME280;57902;49.638;11.070;2023-07-16T05:36:54;98323.25;;;20.64;84.44
70445;BME280;57902;49.638;11.070;2023-07-16T05:39:21;98332.19;;;20.61;87.77
70445;BME280;57902;49.638;11.070;2023-07-16T05:41:48;98334.81;;;20.61;87.84
70445;BME280;57902;49.638;11.070;2023-07-16T05:44:15;98339.22;;;20.74;84.03
70445;BME280;57902;49.638;11.070;2023-07-16T05:46:41;98346.53;;;20.82;82.02
70445;BME280;57902;49.638;11.070;2023-07-16T05:49:08;98337.13;;;20.53;84.16
70445;BME280;57902;49.638;11.070;2023-07-16T05:51:34;98339.69;;;20.29;86.65
70445;BME280;57902;49.638;11.070;2023-07-16T05:54:01;98327.72;;;20.25;85.21
70445;BME280;57902;49.638;11.070;2023-07-16T05:56:28;98328.25;;;20.17;86.92
70445;BME280;57902;49.638;11.070;2023-07-16T05:58:55;98328.25;;;20.04;86.91
70445;BME280;57902;49.638;11.070;2023-07-16T06:01:22;98334.31;;;19.92;92.29
70445;BME280;57902;49.638;11.070;2023-07-16T06:03:49;98319.16;;;19.97;92.82
70445;BME280;57902;49.638;11.070;2023-07-16T06:06:15;98335.38;;;19.89;91.53
70445;BME280;57902;49.638;11.070;2023-07-16T06:08:42;98339.03;;;19.87;91.35
70445;BME280;57902;49.638;11.070;2023-07-16T06:11:09;98334.63;;;20.00;88.94
70445;BME280;57902;49.638;11.070;2023-07-16T06:13:35;98333.50;;;20.04;89.93
70445;BME280;57902;49.638;11.070;2023-07-16T06:16:02;98345.31;;;20.10;89.08
70445;BME280;57902;49.638;11.070;2023-07-16T06:18:29;98364.56;;;20.09;89.38
70445;BME280;57902;49.638;11.070;2023-07-16T06:20:55;98364.06;;;20.17;84.99
70445;BME280;57902;49.638;11.070;2023-07-16T06:23:22;98370.63;;;19.84;91.08
70445;BME280;57902;49.638;11.070;2023-07-16T06:25:53;98367.34;;;19.80;91.64
70445;BME280;57902;49.638;11.070;2023-07-16T06:28:20;98364.22;;;19.88;92.02
70445;BME280;57902;49.638;11.070;2023-07-16T06:30:47;98360.16;;;19.97;91.73
70445;BME280;57902;49.638;11.070;2023-07-16T06:33:13;98365.50;;;20.08;89.13
70445;BME280;57902;49.638;11.070;2023-07-16T06:35:44;98369.16;;;20.05;90.36
70445;BME280;57902;49.638;11.070;2023-07-16T06:38:10;98366.84;;;19.88;88.78
70445;BME280;57902;49.638;11.070;2023-07-16T06:40:37;98377.63;;;19.96;89.00
70445;BME280;57902;49.638;11.070;2023-07-16T06:43:04;98383.94;;;20.06;87.99
70445;BME280;57902;49.638;11.070;2023-07-16T06:45:30;98384.88;;;20.05;88.62
70445;BME280;57902;49.638;11.070;2023-07-16T06:47:59;98386.22;;;20.11;86.59
70445;BME280;57902;49.638;11.070;2023-07-16T06:50:26;98383.31;;;20.16;86.61
70445;BME280;57902;49.638;11.070;2023-07-16T06:52:53;98376.00;;;20.21;88.25
70445;BME280;57902;49.638;11.070;2023-07-16T06:55:19;98377.25;;;20.41;86.58
70445;BME280;57902;49.638;11.070;2023-07-16T06:57:46;98376.81;;;20.86;86.43
70445;BME280;57902;49.638;11.070;2023-07-16T07:00:12;98374.09;;;21.48;79.92
70445;BME280;57902;49.638;11.070;2023-07-16T07:02:39;98380.41;;;21.70;77.07
70445;BME280;57902;49.638;11.070;2023-07-16T07:05:06;98389.81;;;21.73;74.90
70445;BME280;57902;49.638;11.070;2023-07-16T07:07:32;98392.41;;;21.61;77.21
70445;BME280;57902;49.638;11.070;2023-07-16T07:09:59;98403.31;;;21.31;80.34
70445;BME280;57902;49.638;11.070;2023-07-16T07:12:26;98404.56;;;21.38;76.38
70445;BME280;57902;49.638;11.070;2023-07-16T07:14:52;98396.47;;;21.41;77.62
70445;BME280;57902;49.638;11.070;2023-07-16T07:17:19;98403.38;;;21.05;77.27
70445;BME280;57902;49.638;11.070;2023-07-16T07:19:45;98392.03;;;21.18;78.72
70445;BME280;57902;49.638;11.070;2023-07-16T07:22:12;98390.28;;;21.05;78.96
70445;BME280;57902;49.638;11.070;2023-07-16T07:24:38;98393.91;;;21.15;76.04
70445;BME280;57902;49.638;11.070;2023-07-16T07:27:05;98399.25;;;21.14;75.83
70445;BME280;57902;49.638;11.070;2023-07-16T07:29:32;98398.88;;;21.07;75.68
70445;BME280;57902;49.638;11.070;2023-07-16T07:31:58;98395.16;;;20.86;76.83
70445;BME280;57902;49.638;11.070;2023-07-16T07:34:26;98390.78;;;20.73;79.04
70445;BME280;57902;49.638;11.070;2023-07-16T07:36:52;98387.63;;;20.68;80.17
70445;BME280;57902;49.638;11.070;2023-07-16T07:39:19;98394.84;;;20.65;80.02
70445;BME280;57902;49.638;11.070;2023-07-16T07:41:45;98391.28;;;20.78;78.95
70445;BME280;57902;49.638;11.070;2023-07-16T07:44:12;98407.53;;;20.84;80.31
70445;BME280;57902;49.638;11.070;2023-07-16T07:46:38;98401.16;;;21.12;80.05
70445;BME280;57902;49.638;11.070;2023-07-16T07:49:05;98402.34;;;22.51;73.21
70445;BME280;57902;49.638;11.070;2023-07-16T07:51:31;98408.28;;;23.65;69.38
70445;BME280;57902;49.638;11.070;2023-07-16T07:53:58;98396.50;;;24.96;61.27
70445;BME280;57902;49.638;11.070;2023-07-16T07:56:24;98395.81;;;25.54;58.26
70445;BME280;57902;49.638;11.070;2023-07-16T07:58:51;98401.25;;;25.53;60.10
70445;BME280;57902;49.638;11.070;2023-07-16T08:01:18;98389.03;;;25.71;57.15
70445;BME280;57902;49.638;11.070;2023-07-16T08:03:44;98381.34;;;26.17;55.20
70445;BME280;57902;49.638;11.070;2023-07-16T08:06:12;98387.91;;;25.83;55.11
70445;BME280;57902;49.638;11.070;2023-07-16T08:08:39;98396.00;;;25.02;56.57
70445;BME280;57902;49.638;11.070;2023-07-16T08:11:20;98389.03;;;24.39;56.88
70445;BME280;57902;49.638;11.070;2023-07-16T08:13:47;98402.13;;;23.55;60.62
70445;BME280;57902;49.638;11.070;2023-07-16T08:16:20;98401.94;;;23.68;58.84
70445;BME280;57902;49.638;11.070;2023-07-16T08:18:46;98410.91;;;23.33;63.64
70445;BME280;57902;49.638;11.070;2023-07-16T08:21:13;98409.03;;;23.23;66.32
70445;BME280;57902;49.638;11.070;2023-07-16T08:23:49;98409.50;;;22.95;63.21
70445;BME280;57902;49.638;11.070;2023-07-16T08:26:17;98412.41;;;22.80;62.99
70445;BME280;57902;49.638;11.070;2023-07-16T08:28:44;98414.78;;;22.72;63.29
70445;BME280;57902;49.638;11.070;2023-07-16T08:31:11;98421.59;;;22.75;64.61
70445;BME280;57902;49.638;11.070;2023-07-16T08:33:39;98426.94;;;22.84;64.88
70445;BME280;57902;49.638;11.070;2023-07-16T08:36:05;98431.72;;;22.57;66.87
70445;BME280;57902;49.638;11.070;2023-07-16T08:38:32;98429.56;;;22.39;67.65
70445;BME280;57902;49.638;11.070;2023-07-16T08:41:00;98419.78;;;22.64;63.17
70445;BME280;57902;49.638;11.070;2023-07-16T08:43:28;98425.72;;;22.43;63.59
70445;BME280;57902;49.638;11.070;2023-07-16T08:45:55;98430.84;;;22.45;63.39
70445;BME280;57902;49.638;11.070;2023-07-16T08:50:49;98426.69;;;22.42;64.93
70445;BME280;57902;49.638;11.070;2023-07-16T08:53:16;98429.69;;;22.49;65.95
70445;BME280;57902;49.638;11.070;2023-07-16T08:55:44;98435.31;;;22.89;65.77
70445;BME280;57902;49.638;11.070;2023-07-16T08:58:13;98440.88;;;23.53;65.01
70445;BME280;57902;49.638;11.070;2023-07-16T09:00:44;98436.06;;;24.02;62.19
70445;BME280;57902;49.638;11.070;2023-07-16T09:03:12;98437.41;;;24.80;57.62
70445;BME280;57902;49.638;11.070;2023-07-16T09:05:40;98436.81;;;25.08;59.55
70445;BME280;57902;49.638;11.070;2023-07-16T09:08:07;98442.31;;;25.36;53.00
70445;BME280;57902;49.638;11.070;2023-07-16T09:10:34;98447.06;;;25.42;52.81
70445;BME280;57902;49.638;11.070;2023-07-16T09:13:00;98441.50;;;25.35;53.35
70445;BME280;57902;49.638;11.070;2023-07-16T09:15:28;98439.31;;;25.60;53.69
70445;BME280;57902;49.638;11.070;2023-07-16T09:17:55;98437.38;;;25.72;52.70
70445;BME280;57902;49.638;11.070;2023-07-16T09:20:22;98434.59;;;25.63;52.50
70445;BME280;57902;49.638;11.070;2023-07-16T09:22:55;98440.31;;;25.78;55.34
70445;BME280;57902;49.638;11.070;2023-07-16T09:25:26;98428.47;;;25.63;55.64
70445;BME280;57902;49.638;11.070;2023-07-16T09:27:53;98428.38;;;26.04;50.92
70445;BME280;57902;49.638;11.070;2023-07-16T09:30:20;98441.03;;;26.10;51.38
70445;BME280;57902;49.638;11.070;2023-07-16T09:32:47;98440.88;;;26.11;52.49
70445;BME280;57902;49.638;11.070;2023-07-16T09:35:15;98435.16;;;26.16;52.49
70445;BME280;57902;49.638;11.070;2023-07-16T09:37:43;98441.06;;;26.57;52.96
70445;BME280;57902;49.638;11.070;2023-07-16T09:40:11;98436.78;;;26.56;47.76
70445;BME280;57902;49.638;11.070;2023-07-16T09:42:39;98437.66;;;26.37;49.06
70445;BME280;57902;49.638;11.070;2023-07-16T09:45:07;98435.84;;;25.79;51.52
70445;BME280;57902;49.638;11.070;2023-07-16T09:47:35;98441.13;;;25.59;51.02
70445;BME280;57902;49.638;11.070;2023-07-16T09:50:02;98436.22;;;25.35;53.04
70445;BME280;57902;49.638;11.070;2023-07-16T09:52:31;98429.31;;;25.13;53.77
70445;BME280;57902;49.638;11.070;2023-07-16T09:55:02;98430.53;;;25.40;52.04
70445;BME280;57902;49.638;11.070;2023-07-16T09:57:36;98435.13;;;25.38;52.90
70445;BME280;57902;49.638;11.070;2023-07-16T10:00:06;98422.91;;;25.46;51.21
70445;BME280;57902;49.638;11.070;2023-07-16T10:02:34;98414.06;;;25.77;48.71
70445;BME280;57902;49.638;11.070;2023-07-16T10:05:18;98417.91;;;25.82;49.67
70445;BME280;57902;49.638;11.070;2023-07-16T10:07:56;98411.25;;;25.88;50.67
70445;BME280;57902;49.638;11.070;2023-07-16T10:10:46;98416.25;;;25.52;51.00
70445;BME280;57902;49.638;11.070;2023-07-16T10:13:17;98415.16;;;25.74;50.75
70445;BME280;57902;49.638;11.070;2023-07-16T10:15:57;98409.59;;;26.07;49.27
70445;BME280;57902;49.638;11.070;2023-07-16T10:18:30;98412.34;;;25.95;49.37
70445;BME280;57902;49.638;11.070;2023-07-16T10:21:03;98417.94;;;25.73;50.24
70445;BME280;57902;49.638;11.070;2023-07-16T10:23:37;98408.31;;;25.42;50.46
70445;BME280;57902;49.638;11.070;2023-07-16T10:26:06;98413.66;;;25.21;51.77
70445;BME280;57902;49.638;11.070;2023-07-16T10:28:33;98411.16;;;24.79;51.28
70445;BME280;57902;49.638;11.070;2023-07-16T10:31:04;98409.75;;;24.75;51.57
70445;BME280;57902;49.638;11.070;2023-07-16T10:33:34;98403.38;;;24.56;53.21
70445;BME280;57902;49.638;11.070;2023-07-16T10:36:03;98406.44;;;24.52;52.63
70445;BME280;57902;49.638;11.070;2023-07-16T10:38:30;98406.50;;;24.61;53.34
70445;BME280;57902;49.638;11.070;2023-07-16T10:41:06;98401.44;;;24.79;52.27
70445;BME280;57902;49.638;11.070;2023-07-16T10:43:32;98395.25;;;25.41;49.45
70445;BME280;57902;49.638;11.070;2023-07-16T10:45:59;98388.88;;;25.53;49.94
70445;BME280;57902;49.638;11.070;2023-07-16T10:48:25;98399.72;;;25.79;48.66
70445;BME280;57902;49.638;11.070;2023-07-16T10:50:53;98405.41;;;25.75;49.51
70445;BME280;57902;49.638;11.070;2023-07-16T10:53:21;98391.22;;;25.85;48.02
70445;BME280;57902;49.638;11.070;2023-07-16T10:55:47;98398.75;;;26.19;47.36
70445;BME280;57902;49.638;11.070;2023-07-16T10:58:14;98392.59;;;26.19;47.04
70445;BME280;57902;49.638;11.070;2023-07-16T11:00:41;98399.72;;;26.09;46.61
70445;BME280;57902;49.638;11.070;2023-07-16T11:03:08;98393.72;;;26.26;45.64
70445;BME280;57902;49.638;11.070;2023-07-16T11:05:35;98386.44;;;26.38;45.46
70445;BME280;57902;49.638;11.070;2023-07-16T11:08:02;98384.28;;;26.14;48.10
70445;BME280;57902;49.638;11.070;2023-07-16T11:10:31;98375.81;;;25.61;47.00
70445;BME280;57902;49.638;11.070;2023-07-16T11:12:57;98381.25;;;25.60;46.40
70445;BME280;57902;49.638;11.070;2023-07-16T11:15:32;98381.09;;;25.42;47.01
70445;BME280;57902;49.638;11.070;2023-07-16T11:18:01;98384.53;;;25.32;48.01
70445;BME280;57902;49.638;11.070;2023-07-16T11:20:29;98385.88;;;25.17;48.32
70445;BME280;57902;49.638;11.070;2023-07-16T11:22:58;98382.34;;;25.38;47.69
70445;BME280;57902;49.638;11.070;2023-07-16T11:25:25;98379.84;;;25.65;46.85
70445;BME280;57902;49.638;11.070;2023-07-16T11:27:55;98388.47;;;25.77;45.25
70445;BME280;57902;49.638;11.070;2023-07-16T11:30:27;98386.53;;;25.70;47.61
70445;BME280;57902;49.638;11.070;2023-07-16T11:32:58;98379.84;;;25.75;46.25
70445;BME280;57902;49.638;11.070;2023-07-16T11:35:25;98384.69;;;25.60;46.57
70445;BME280;57902;49.638;11.070;2023-07-16T11:37:52;98380.81;;;25.45;45.46
70445;BME280;57902;49.638;11.070;2023-07-16T11:40:19;98379.31;;;25.52;47.14
70445;BME280;57902;49.638;11.070;2023-07-16T11:42:46;98373.72;;;25.75;46.31
70445;BME280;57902;49.638;11.070;2023-07-16T11:45:20;98361.91;;;25.79;45.65
70445;BME280;57902;49.638;11.070;2023-07-16T11:47:46;98355.53;;;25.72;45.60
70445;BME280;57902;49.638;11.070;2023-07-16T11:50:13;98362.88;;;25.97;43.88
70445;BME280;57902;49.638;11.070;2023-07-16T11:52:41;98367.19;;;26.18;43.56
70445;BME280;57902;49.638;11.070;2023-07-16T11:55:08;98362.72;;;26.18;43.23
70445;BME280;57902;49.638;11.070;2023-07-16T11:57:35;98361.06;;;25.88;46.02
70445;BME280;57902;49.638;11.070;2023-07-16T12:00:03;98359.53;;;25.95;43.55
70445;BME280;57902;49.638;11.070;2023-07-16T12:02:30;98359.81;;;25.92;43.93
70445;BME280;57902;49.638;11.070;2023-07-16T12:04:57;98359.28;;;26.08;43.59
70445;BME280;57902;49.638;11.070;2023-07-16T12:07:34;98352.69;;;26.22;43.68
70445;BME280;57902;49.638;11.070;2023-07-16T12:10:04;98352.16;;;26.18;43.54
70445;BME280;57902;49.638;11.070;2023-07-16T12:12:32;98370.09;;;25.95;43.13
70445;BME280;57902;49.638;11.070;2023-07-16T12:15:01;98366.09;;;25.72;44.33
70445;BME280;57902;49.638;11.070;2023-07-16T12:17:28;98367.34;;;25.67;45.62
70445;BME280;57902;49.638;11.070;2023-07-16T12:19:55;98361.78;;;25.51;44.19
70445;BME280;57902;49.638;11.070;2023-07-16T12:22:21;98356.34;;;25.43;46.29
70445;BME280;57902;49.638;11.070;2023-07-16T12:24:50;98361.22;;;25.57;45.79
70445;BME280;57902;49.638;11.070;2023-07-16T12:27:18;98354.84;;;25.70;44.43
70445;BME280;57902;49.638;11.070;2023-07-16T12:29:45;98353.75;;;25.62;47.96
70445;BME280;57902;49.638;11.070;2023-07-16T12:32:13;98350.38;;;25.60;47.57
70445;BME280;57902;49.638;11.070;2023-07-16T12:34:40;98346.47;;;25.84;46.32
70445;BME280;57902;49.638;11.070;2023-07-16T12:37:06;98351.66;;;26.43;43.84
70445;BME280;57902;49.638;11.070;2023-07-16T12:39:33;98351.59;;;26.62;42.35
70445;BME280;57902;49.638;11.070;2023-07-16T12:41:59;98352.69;;;26.22;44.13
70445;BME280;57902;49.638;11.070;2023-07-16T12:44:26;98345.09;;;25.90;45.11
70445;BME280;57902;49.638;11.070;2023-07-16T12:46:52;98344.69;;;25.65;44.50
70445;BME280;57902;49.638;11.070;2023-07-16T12:49:19;98332.59;;;25.82;43.33
70445;BME280;57902;49.638;11.070;2023-07-16T12:51:45;98339.09;;;26.07;44.27
70445;BME280;57902;49.638;11.070;2023-07-16T12:54:12;98334.81;;;25.87;44.63
70445;BME280;57902;49.638;11.070;2023-07-16T12:56:38;98339.28;;;25.66;44.43